Perez Millan, Argentina
Current Conditions -  °F | °C
As of 12:00 AM on Sunday 23 Nov 2014 (Local Time) from SAAR Reporting Station
Clear Clear  
Wind Chill: 17°   Ceiling: Unl
Heat Index: 17°   Visibility: 6mi
Dew Point: 13°   Wind: 0mph
Humidity: 77%   Direction: NA
Pressure: 29.88"   Gusts: NA
Location:  33.78°S, 60.12°W
Report Text: SAAR 230300Z 00000KT CAVOK 17/13 Q1012
Loading
Personal Weather Stations






























Interactive Weather Map New forecast layout! Learn more

10-Day Weather Forecast

Advertisements
Track Severe Weather on mobile